sensor_id;sensor_type;location;lat;lon;timestamp;P1;durP1;ratioP1;P2;durP2;ratioP2
75135;SDS011;63707;52.212;9.540;2022-11-15T00:00:31;36.40;;;17.30;;
75135;SDS011;63707;52.212;9.540;2022-11-15T00:02:57;38.45;;;18.60;;
75135;SDS011;63707;52.212;9.540;2022-11-15T00:05:22;26.50;;;13.38;;
75135;SDS011;63707;52.212;9.540;2022-11-15T00:07:49;21.98;;;11.77;;
75135;SDS011;63707;52.212;9.540;2022-11-15T00:10:15;23.70;;;11.45;;
75135;SDS011;63707;52.212;9.540;2022-11-15T00:12:41;21.52;;;11.38;;
75135;SDS011;63707;52.212;9.540;2022-11-15T00:15:07;23.13;;;11.38;;
75135;SDS011;63707;52.212;9.540;2022-11-15T00:17:33;22.23;;;11.73;;
75135;SDS011;63707;52.212;9.540;2022-11-15T00:19:58;26.77;;;12.93;;
75135;SDS011;63707;52.212;9.540;2022-11-15T00:22:24;24.52;;;12.40;;
75135;SDS011;63707;52.212;9.540;2022-11-15T00:24:51;24.55;;;13.60;;
75135;SDS011;63707;52.212;9.540;2022-11-15T00:27:16;21.35;;;11.68;;
75135;SDS011;63707;52.212;9.540;2022-11-15T00:29:41;22.50;;;11.77;;
75135;SDS011;63707;52.212;9.540;2022-11-15T00:32:08;20.38;;;11.57;;
75135;SDS011;63707;52.212;9.540;2022-11-15T00:34:34;19.67;;;11.95;;
75135;SDS011;63707;52.212;9.540;2022-11-15T00:36:59;18.58;;;11.35;;
75135;SDS011;63707;52.212;9.540;2022-11-15T00:39:25;21.48;;;11.35;;
75135;SDS011;63707;52.212;9.540;2022-11-15T00:41:52;21.98;;;11.43;;
75135;SDS011;63707;52.212;9.540;2022-11-15T00:44:17;18.60;;;9.93;;
75135;SDS011;63707;52.212;9.540;2022-11-15T00:46:43;22.70;;;10.95;;
75135;SDS011;63707;52.212;9.540;2022-11-15T00:49:08;18.08;;;10.65;;
75135;SDS011;63707;52.212;9.540;2022-11-15T00:51:34;23.63;;;9.88;;
75135;SDS011;63707;52.212;9.540;2022-11-15T00:53:59;19.15;;;9.77;;
75135;SDS011;63707;52.212;9.540;2022-11-15T00:56:25;18.17;;;9.52;;
75135;SDS011;63707;52.212;9.540;2022-11-15T00:58:52;15.32;;;8.98;;
75135;SDS011;63707;52.212;9.540;2022-11-15T01:01:17;16.33;;;9.65;;
75135;SDS011;63707;52.212;9.540;2022-11-15T01:03:43;17.77;;;9.38;;
75135;SDS011;63707;52.212;9.540;2022-11-15T01:06:09;15.32;;;9.30;;
75135;SDS011;63707;52.212;9.540;2022-11-15T01:08:35;18.23;;;9.95;;
75135;SDS011;63707;52.212;9.540;2022-11-15T01:11:01;17.63;;;10.45;;
75135;SDS011;63707;52.212;9.540;2022-11-15T01:13:29;19.25;;;10.93;;
75135;SDS011;63707;52.212;9.540;2022-11-15T01:15:57;16.83;;;9.93;;
75135;SDS011;63707;52.212;9.540;2022-11-15T01:18:22;25.45;;;11.52;;
75135;SDS011;63707;52.212;9.540;2022-11-15T01:20:48;21.33;;;11.40;;
75135;SDS011;63707;52.212;9.540;2022-11-15T01:23:14;18.55;;;10.35;;
75135;SDS011;63707;52.212;9.540;2022-11-15T01:25:39;22.30;;;10.93;;
75135;SDS011;63707;52.212;9.540;2022-11-15T01:28:05;18.45;;;10.73;;
75135;SDS011;63707;52.212;9.540;2022-11-15T01:30:30;17.98;;;10.55;;
75135;SDS011;63707;52.212;9.540;2022-11-15T01:32:57;19.73;;;10.85;;
75135;SDS011;63707;52.212;9.540;2022-11-15T01:35:23;21.90;;;10.50;;
75135;SDS011;63707;52.212;9.540;2022-11-15T01:37:48;18.00;;;10.25;;
75135;SDS011;63707;52.212;9.540;2022-11-15T01:40:15;20.17;;;10.77;;
75135;SDS011;63707;52.212;9.540;2022-11-15T01:42:41;20.27;;;9.85;;
75135;SDS011;63707;52.212;9.540;2022-11-15T01:45:07;18.45;;;10.15;;
75135;SDS011;63707;52.212;9.540;2022-11-15T01:47:39;18.40;;;9.88;;
75135;SDS011;63707;52.212;9.540;2022-11-15T01:50:09;19.58;;;10.50;;
75135;SDS011;63707;52.212;9.540;2022-11-15T01:52:37;18.27;;;10.45;;
75135;SDS011;63707;52.212;9.540;2022-11-15T01:55:05;18.75;;;10.77;;
75135;SDS011;63707;52.212;9.540;2022-11-15T01:57:34;20.77;;;10.25;;
75135;SDS011;63707;52.212;9.540;2022-11-15T02:00:00;18.25;;;9.70;;
75135;SDS011;63707;52.212;9.540;2022-11-15T02:02:28;17.83;;;9.45;;
75135;SDS011;63707;52.212;9.540;2022-11-15T02:04:53;15.38;;;9.15;;
75135;SDS011;63707;52.212;9.540;2022-11-15T02:07:21;13.48;;;8.75;;
75135;SDS011;63707;52.212;9.540;2022-11-15T02:09:47;14.73;;;8.93;;
75135;SDS011;63707;52.212;9.540;2022-11-15T02:12:15;14.57;;;8.73;;
75135;SDS011;63707;52.212;9.540;2022-11-15T02:14:44;17.92;;;8.60;;
75135;SDS011;63707;52.212;9.540;2022-11-15T02:17:17;19.20;;;8.90;;
75135;SDS011;63707;52.212;9.540;2022-11-15T02:23:02;16.20;;;8.60;;
75135;SDS011;63707;52.212;9.540;2022-11-15T02:25:54;15.38;;;8.75;;
75135;SDS011;63707;52.212;9.540;2022-11-15T02:31:26;14.32;;;8.77;;
75135;SDS011;63707;52.212;9.540;2022-11-15T02:33:59;9.73;;;6.20;;
75135;SDS011;63707;52.212;9.540;2022-11-15T02:36:33;17.30;;;9.00;;
75135;SDS011;63707;52.212;9.540;2022-11-15T02:39:06;15.30;;;7.97;;
75135;SDS011;63707;52.212;9.540;2022-11-15T02:41:41;15.68;;;8.80;;
75135;SDS011;63707;52.212;9.540;2022-11-15T02:44:13;17.42;;;9.45;;
75135;SDS011;63707;52.212;9.540;2022-11-15T02:46:46;16.58;;;9.02;;
75135;SDS011;63707;52.212;9.540;2022-11-15T02:49:34;17.50;;;8.93;;
75135;SDS011;63707;52.212;9.540;2022-11-15T02:52:00;16.85;;;8.95;;
75135;SDS011;63707;52.212;9.540;2022-11-15T02:54:26;17.63;;;9.45;;
75135;SDS011;63707;52.212;9.540;2022-11-15T02:56:56;15.77;;;8.85;;
75135;SDS011;63707;52.212;9.540;2022-11-15T03:02:33;16.15;;;8.80;;
75135;SDS011;63707;52.212;9.540;2022-11-15T03:05:09;14.77;;;8.75;;
75135;SDS011;63707;52.212;9.540;2022-11-15T03:07:43;18.48;;;8.25;;
75135;SDS011;63707;52.212;9.540;2022-11-15T03:10:17;15.00;;;8.50;;
75135;SDS011;63707;52.212;9.540;2022-11-15T03:12:48;13.63;;;8.45;;
75135;SDS011;63707;52.212;9.540;2022-11-15T03:15:20;17.98;;;8.95;;
75135;SDS011;63707;52.212;9.540;2022-11-15T03:17:51;15.55;;;9.15;;
75135;SDS011;63707;52.212;9.540;2022-11-15T03:20:22;16.45;;;8.43;;
75135;SDS011;63707;52.212;9.540;2022-11-15T03:22:50;15.60;;;8.50;;
75135;SDS011;63707;52.212;9.540;2022-11-15T03:25:19;13.18;;;7.95;;
75135;SDS011;63707;52.212;9.540;2022-11-15T03:27:49;14.38;;;8.70;;
75135;SDS011;63707;52.212;9.540;2022-11-15T03:30:18;15.50;;;8.15;;
75135;SDS011;63707;52.212;9.540;2022-11-15T03:32:44;14.50;;;8.32;;
75135;SDS011;63707;52.212;9.540;2022-11-15T03:35:14;15.48;;;7.88;;
75135;SDS011;63707;52.212;9.540;2022-11-15T03:37:44;14.18;;;7.38;;
75135;SDS011;63707;52.212;9.540;2022-11-15T03:40:14;15.68;;;7.65;;
75135;SDS011;63707;52.212;9.540;2022-11-15T03:42:42;15.25;;;7.60;;
75135;SDS011;63707;52.212;9.540;2022-11-15T03:45:13;15.05;;;7.53;;
75135;SDS011;63707;52.212;9.540;2022-11-15T03:47:43;15.07;;;7.85;;
75135;SDS011;63707;52.212;9.540;2022-11-15T03:50:15;13.35;;;7.25;;
75135;SDS011;63707;52.212;9.540;2022-11-15T03:52:44;13.35;;;7.38;;
75135;SDS011;63707;52.212;9.540;2022-11-15T03:55:11;14.85;;;7.65;;
75135;SDS011;63707;52.212;9.540;2022-11-15T03:57:39;13.73;;;7.30;;
75135;SDS011;63707;52.212;9.540;2022-11-15T04:00:05;12.73;;;7.97;;
75135;SDS011;63707;52.212;9.540;2022-11-15T04:02:31;11.93;;;7.03;;
75135;SDS011;63707;52.212;9.540;2022-11-15T04:04:56;14.73;;;7.00;;
75135;SDS011;63707;52.212;9.540;2022-11-15T04:07:23;14.32;;;7.15;;
75135;SDS011;63707;52.212;9.540;2022-11-15T04:09:49;12.25;;;7.10;;
75135;SDS011;63707;52.212;9.540;2022-11-15T04:12:33;10.23;;;7.03;;
75135;SDS011;63707;52.212;9.540;2022-11-15T04:15:02;9.45;;;6.32;;
75135;SDS011;63707;52.212;9.540;2022-11-15T04:17:33;13.15;;;7.05;;
75135;SDS011;63707;52.212;9.540;2022-11-15T04:20:00;13.48;;;6.90;;
75135;SDS011;63707;52.212;9.540;2022-11-15T04:22:45;11.02;;;6.63;;
75135;SDS011;63707;52.212;9.540;2022-11-15T04:25:29;12.23;;;7.38;;
75135;SDS011;63707;52.212;9.540;2022-11-15T04:27:55;14.60;;;6.85;;
75135;SDS011;63707;52.212;9.540;2022-11-15T04:30:20;11.00;;;6.80;;
75135;SDS011;63707;52.212;9.540;2022-11-15T04:32:46;11.25;;;6.55;;
75135;SDS011;63707;52.212;9.540;2022-11-15T04:35:11;12.32;;;6.97;;
75135;SDS011;63707;52.212;9.540;2022-11-15T04:37:37;13.77;;;6.30;;
75135;SDS011;63707;52.212;9.540;2022-11-15T04:40:04;13.20;;;6.30;;
75135;SDS011;63707;52.212;9.540;2022-11-15T04:42:31;10.43;;;5.70;;
75135;SDS011;63707;52.212;9.540;2022-11-15T04:44:56;10.00;;;5.95;;
75135;SDS011;63707;52.212;9.540;2022-11-15T04:47:22;14.60;;;6.10;;
75135;SDS011;63707;52.212;9.540;2022-11-15T04:49:47;10.27;;;6.43;;
75135;SDS011;63707;52.212;9.540;2022-11-15T04:52:13;11.52;;;5.82;;
75135;SDS011;63707;52.212;9.540;2022-11-15T04:54:38;9.82;;;6.10;;
75135;SDS011;63707;52.212;9.540;2022-11-15T04:57:05;11.82;;;5.80;;
75135;SDS011;63707;52.212;9.540;2022-11-15T04:59:31;10.65;;;6.53;;
75135;SDS011;63707;52.212;9.540;2022-11-15T05:01:56;11.23;;;6.50;;
75135;SDS011;63707;52.212;9.540;2022-11-15T05:04:22;10.15;;;5.63;;
75135;SDS011;63707;52.212;9.540;2022-11-15T05:06:48;13.43;;;6.75;;
75135;SDS011;63707;52.212;9.540;2022-11-15T05:09:14;10.32;;;5.78;;
75135;SDS011;63707;52.212;9.540;2022-11-15T05:11:40;10.82;;;5.78;;
75135;SDS011;63707;52.212;9.540;2022-11-15T05:14:07;9.25;;;5.47;;
75135;SDS011;63707;52.212;9.540;2022-11-15T05:16:33;9.95;;;5.70;;
75135;SDS011;63707;52.212;9.540;2022-11-15T05:18:59;12.02;;;5.78;;
75135;SDS011;63707;52.212;9.540;2022-11-15T05:21:24;8.90;;;5.35;;
75135;SDS011;63707;52.212;9.540;2022-11-15T05:23:50;9.73;;;5.70;;
75135;SDS011;63707;52.212;9.540;2022-11-15T05:26:16;8.70;;;5.47;;
75135;SDS011;63707;52.212;9.540;2022-11-15T05:28:43;11.00;;;5.72;;
75135;SDS011;63707;52.212;9.540;2022-11-15T05:31:10;8.23;;;5.50;;
75135;SDS011;63707;52.212;9.540;2022-11-15T05:33:37;11.45;;;5.85;;
75135;SDS011;63707;52.212;9.540;2022-11-15T05:36:04;10.35;;;5.07;;
75135;SDS011;63707;52.212;9.540;2022-11-15T05:38:37;8.60;;;4.97;;
75135;SDS011;63707;52.212;9.540;2022-11-15T05:41:02;9.90;;;5.88;;
75135;SDS011;63707;52.212;9.540;2022-11-15T05:43:29;9.80;;;5.35;;
75135;SDS011;63707;52.212;9.540;2022-11-15T05:45:57;10.35;;;6.20;;
75135;SDS011;63707;52.212;9.540;2022-11-15T05:48:26;9.98;;;5.78;;
75135;SDS011;63707;52.212;9.540;2022-11-15T05:50:52;11.02;;;6.25;;
75135;SDS011;63707;52.212;9.540;2022-11-15T05:53:18;10.15;;;5.22;;
75135;SDS011;63707;52.212;9.540;2022-11-15T05:55:46;11.15;;;5.90;;
75135;SDS011;63707;52.212;9.540;2022-11-15T05:58:12;9.00;;;5.60;;
75135;SDS011;63707;52.212;9.540;2022-11-15T06:00:38;10.27;;;6.00;;
75135;SDS011;63707;52.212;9.540;2022-11-15T06:03:04;9.95;;;5.80;;
75135;SDS011;63707;52.212;9.540;2022-11-15T06:05:31;10.25;;;5.72;;
75135;SDS011;63707;52.212;9.540;2022-11-15T06:07:57;10.32;;;5.70;;
75135;SDS011;63707;52.212;9.540;2022-11-15T06:10:23;13.63;;;6.35;;
75135;SDS011;63707;52.212;9.540;2022-11-15T06:12:55;12.48;;;6.60;;
75135;SDS011;63707;52.212;9.540;2022-11-15T06:15:21;9.38;;;6.47;;
75135;SDS011;63707;52.212;9.540;2022-11-15T06:17:47;10.60;;;6.63;;
75135;SDS011;63707;52.212;9.540;2022-11-15T06:20:12;10.13;;;6.15;;
75135;SDS011;63707;52.212;9.540;2022-11-15T06:22:39;10.65;;;5.70;;
75135;SDS011;63707;52.212;9.540;2022-11-15T06:25:05;13.30;;;6.95;;
75135;SDS011;63707;52.212;9.540;2022-11-15T06:27:31;10.35;;;6.43;;
75135;SDS011;63707;52.212;9.540;2022-11-15T06:29:56;13.85;;;7.05;;
75135;SDS011;63707;52.212;9.540;2022-11-15T06:32:22;15.10;;;6.70;;
75135;SDS011;63707;52.212;9.540;2022-11-15T06:34:47;11.82;;;7.07;;
75135;SDS011;63707;52.212;9.540;2022-11-15T06:37:13;12.20;;;6.45;;
75135;SDS011;63707;52.212;9.540;2022-11-15T06:39:39;11.13;;;6.63;;
75135;SDS011;63707;52.212;9.540;2022-11-15T06:42:05;14.45;;;7.55;;
75135;SDS011;63707;52.212;9.540;2022-11-15T06:44:30;11.80;;;7.60;;
75135;SDS011;63707;52.212;9.540;2022-11-15T06:46:56;11.05;;;6.90;;
75135;SDS011;63707;52.212;9.540;2022-11-15T06:49:21;13.57;;;5.72;;
75135;SDS011;63707;52.212;9.540;2022-11-15T06:51:47;11.45;;;6.15;;
75135;SDS011;63707;52.212;9.540;2022-11-15T06:54:13;10.50;;;5.90;;
75135;SDS011;63707;52.212;9.540;2022-11-15T06:56:40;12.95;;;5.88;;
75135;SDS011;63707;52.212;9.540;2022-11-15T06:59:05;7.53;;;5.20;;
75135;SDS011;63707;52.212;9.540;2022-11-15T07:01:31;9.90;;;5.75;;
75135;SDS011;63707;52.212;9.540;2022-11-15T07:03:56;13.75;;;5.60;;
75135;SDS011;63707;52.212;9.540;2022-11-15T07:06:22;11.65;;;5.70;;
75135;SDS011;63707;52.212;9.540;2022-11-15T07:08:47;11.60;;;5.32;;
75135;SDS011;63707;52.212;9.540;2022-11-15T07:11:13;9.82;;;4.82;;
75135;SDS011;63707;52.212;9.540;2022-11-15T07:13:40;10.48;;;5.50;;
75135;SDS011;63707;52.212;9.540;2022-11-15T07:16:07;10.65;;;5.35;;
75135;SDS011;63707;52.212;9.540;2022-11-15T07:18:34;8.85;;;4.68;;
75135;SDS011;63707;52.212;9.540;2022-11-15T07:21:00;12.40;;;5.30;;
75135;SDS011;63707;52.212;9.540;2022-11-15T07:23:27;9.05;;;4.90;;
75135;SDS011;63707;52.212;9.540;2022-11-15T07:25:53;11.68;;;5.07;;
75135;SDS011;63707;52.212;9.540;2022-11-15T07:28:18;6.72;;;4.53;;
75135;SDS011;63707;52.212;9.540;2022-11-15T07:30:45;8.32;;;4.43;;
75135;SDS011;63707;52.212;9.540;2022-11-15T07:33:10;7.45;;;4.45;;
75135;SDS011;63707;52.212;9.540;2022-11-15T07:35:36;6.53;;;4.35;;
75135;SDS011;63707;52.212;9.540;2022-11-15T07:38:01;8.60;;;4.30;;
75135;SDS011;63707;52.212;9.540;2022-11-15T07:40:28;6.75;;;4.60;;
75135;SDS011;63707;52.212;9.540;2022-11-15T07:42:58;7.57;;;4.68;;
75135;SDS011;63707;52.212;9.540;2022-11-15T07:45:24;7.95;;;4.55;;
75135;SDS011;63707;52.212;9.540;2022-11-15T07:47:55;9.38;;;5.70;;
75135;SDS011;63707;52.212;9.540;2022-11-15T07:50:21;8.50;;;5.47;;
75135;SDS011;63707;52.212;9.540;2022-11-15T07:52:47;8.30;;;4.57;;
75135;SDS011;63707;52.212;9.540;2022-11-15T07:55:12;8.43;;;4.82;;
75135;SDS011;63707;52.212;9.540;2022-11-15T07:57:38;7.20;;;4.47;;
75135;SDS011;63707;52.212;9.540;2022-11-15T08:00:04;7.32;;;4.43;;
75135;SDS011;63707;52.212;9.540;2022-11-15T08:02:31;7.50;;;4.85;;
75135;SDS011;63707;52.212;9.540;2022-11-15T08:04:58;7.97;;;4.80;;
75135;SDS011;63707;52.212;9.540;2022-11-15T08:07:24;8.60;;;5.30;;
75135;SDS011;63707;52.212;9.540;2022-11-15T08:09:49;5.85;;;4.65;;
75135;SDS011;63707;52.212;9.540;2022-11-15T08:12:15;7.15;;;5.35;;
75135;SDS011;63707;52.212;9.540;2022-11-15T08:14:40;7.63;;;4.82;;
75135;SDS011;63707;52.212;9.540;2022-11-15T08:17:06;7.13;;;4.63;;
75135;SDS011;63707;52.212;9.540;2022-11-15T08:19:32;8.02;;;4.55;;
75135;SDS011;63707;52.212;9.540;2022-11-15T08:21:58;8.63;;;4.40;;
75135;SDS011;63707;52.212;9.540;2022-11-15T08:24:24;6.30;;;4.32;;
75135;SDS011;63707;52.212;9.540;2022-11-15T08:26:50;6.97;;;4.63;;
75135;SDS011;63707;52.212;9.540;2022-11-15T08:29:15;7.03;;;4.13;;
75135;SDS011;63707;52.212;9.540;2022-11-15T08:31:41;6.13;;;4.30;;
75135;SDS011;63707;52.212;9.540;2022-11-15T08:34:06;6.10;;;4.47;;
75135;SDS011;63707;52.212;9.540;2022-11-15T08:36:32;7.15;;;4.10;;
75135;SDS011;63707;52.212;9.540;2022-11-15T08:38:59;6.88;;;4.45;;
75135;SDS011;63707;52.212;9.540;2022-11-15T08:41:25;6.63;;;4.28;;
75135;SDS011;63707;52.212;9.540;2022-11-15T08:43:53;5.97;;;4.53;;
75135;SDS011;63707;52.212;9.540;2022-11-15T08:46:18;8.70;;;4.20;;
75135;SDS011;63707;52.212;9.540;2022-11-15T08:48:44;9.15;;;4.07;;
75135;SDS011;63707;52.212;9.540;2022-11-15T08:51:10;7.85;;;4.35;;
75135;SDS011;63707;52.212;9.540;2022-11-15T08:53:35;10.15;;;4.65;;
75135;SDS011;63707;52.212;9.540;2022-11-15T08:56:02;8.20;;;4.25;;
75135;SDS011;63707;52.212;9.540;2022-11-15T08:58:28;9.25;;;4.68;;
75135;SDS011;63707;52.212;9.540;2022-11-15T09:00:53;6.45;;;3.40;;
75135;SDS011;63707;52.212;9.540;2022-11-15T09:03:20;11.05;;;4.43;;
75135;SDS011;63707;52.212;9.540;2022-11-15T09:05:45;6.00;;;2.83;;
75135;SDS011;63707;52.212;9.540;2022-11-15T09:08:11;5.65;;;3.08;;
75135;SDS011;63707;52.212;9.540;2022-11-15T09:10:37;4.13;;;2.70;;
75135;SDS011;63707;52.212;9.540;2022-11-15T09:13:04;6.75;;;3.10;;
75135;SDS011;63707;52.212;9.540;2022-11-15T09:15:30;6.13;;;3.10;;
75135;SDS011;63707;52.212;9.540;2022-11-15T09:17:57;5.93;;;2.88;;
75135;SDS011;63707;52.212;9.540;2022-11-15T09:20:23;5.32;;;2.90;;
75135;SDS011;63707;52.212;9.540;2022-11-15T09:22:48;6.25;;;2.90;;
75135;SDS011;63707;52.212;9.540;2022-11-15T09:25:14;6.25;;;2.90;;
75135;SDS011;63707;52.212;9.540;2022-11-15T09:27:39;4.85;;;3.10;;
75135;SDS011;63707;52.212;9.540;2022-11-15T09:30:07;5.43;;;2.92;;
75135;SDS011;63707;52.212;9.540;2022-11-15T09:32:33;5.88;;;3.53;;
75135;SDS011;63707;52.212;9.540;2022-11-15T09:34:59;4.40;;;3.10;;
75135;SDS011;63707;52.212;9.540;2022-11-15T09:37:24;6.70;;;3.83;;
75135;SDS011;63707;52.212;9.540;2022-11-15T09:39:50;5.60;;;3.30;;
75135;SDS011;63707;52.212;9.540;2022-11-15T09:42:20;5.13;;;2.80;;
75135;SDS011;63707;52.212;9.540;2022-11-15T09:44:57;7.13;;;3.13;;
75135;SDS011;63707;52.212;9.540;2022-11-15T09:47:56;5.70;;;3.08;;
75135;SDS011;63707;52.212;9.540;2022-11-15T09:50:31;4.70;;;2.97;;
75135;SDS011;63707;52.212;9.540;2022-11-15T09:53:02;4.78;;;2.95;;
75135;SDS011;63707;52.212;9.540;2022-11-15T09:55:31;4.80;;;3.10;;
75135;SDS011;63707;52.212;9.540;2022-11-15T09:58:03;6.45;;;3.00;;
75135;SDS011;63707;52.212;9.540;2022-11-15T10:00:35;5.35;;;3.08;;
75135;SDS011;63707;52.212;9.540;2022-11-15T10:03:09;5.72;;;3.58;;
75135;SDS011;63707;52.212;9.540;2022-11-15T10:05:37;5.68;;;3.00;;
75135;SDS011;63707;52.212;9.540;2022-11-15T10:08:09;5.97;;;3.08;;
75135;SDS011;63707;52.212;9.540;2022-11-15T10:10:46;3.65;;;2.47;;
75135;SDS011;63707;52.212;9.540;2022-11-15T10:13:16;4.68;;;2.67;;
75135;SDS011;63707;52.212;9.540;2022-11-15T10:15:45;6.05;;;3.13;;
75135;SDS011;63707;52.212;9.540;2022-11-15T10:18:15;4.30;;;2.60;;
75135;SDS011;63707;52.212;9.540;2022-11-15T10:20:47;4.63;;;2.70;;
75135;SDS011;63707;52.212;9.540;2022-11-15T10:23:15;4.32;;;2.90;;
75135;SDS011;63707;52.212;9.540;2022-11-15T10:25:42;7.55;;;3.53;;
75135;SDS011;63707;52.212;9.540;2022-11-15T10:28:09;4.38;;;2.95;;
75135;SDS011;63707;52.212;9.540;2022-11-15T10:30:40;5.82;;;2.70;;
75135;SDS011;63707;52.212;9.540;2022-11-15T10:33:12;5.32;;;2.58;;
75135;SDS011;63707;52.212;9.540;2022-11-15T10:35:44;3.40;;;2.50;;
75135;SDS011;63707;52.212;9.540;2022-11-15T10:38:10;4.13;;;2.47;;
75135;SDS011;63707;52.212;9.540;2022-11-15T10:40:37;4.18;;;2.50;;
75135;SDS011;63707;52.212;9.540;2022-11-15T10:43:05;4.88;;;2.72;;
75135;SDS011;63707;52.212;9.540;2022-11-15T10:45:38;3.95;;;2.47;;
75135;SDS011;63707;52.212;9.540;2022-11-15T10:48:22;3.50;;;2.30;;
75135;SDS011;63707;52.212;9.540;2022-11-15T10:50:49;4.60;;;2.63;;
75135;SDS011;63707;52.212;9.540;2022-11-15T10:53:19;5.05;;;2.47;;
75135;SDS011;63707;52.212;9.540;2022-11-15T10:55:50;4.40;;;2.35;;
75135;SDS011;63707;52.212;9.540;2022-11-15T10:58:20;5.82;;;2.40;;
75135;SDS011;63707;52.212;9.540;2022-11-15T11:00:57;3.20;;;2.30;;
75135;SDS011;63707;52.212;9.540;2022-11-15T11:03:36;3.78;;;2.45;;
75135;SDS011;63707;52.212;9.540;2022-11-15T11:06:06;4.50;;;2.78;;
75135;SDS011;63707;52.212;9.540;2022-11-15T11:08:35;5.70;;;2.40;;
75135;SDS011;63707;52.212;9.540;2022-11-15T11:11:01;6.20;;;2.95;;
75135;SDS011;63707;52.212;9.540;2022-11-15T11:13:28;3.65;;;2.20;;
75135;SDS011;63707;52.212;9.540;2022-11-15T11:15:56;5.28;;;2.58;;
75135;SDS011;63707;52.212;9.540;2022-11-15T11:18:32;4.30;;;2.45;;
75135;SDS011;63707;52.212;9.540;2022-11-15T11:21:04;4.10;;;2.50;;
75135;SDS011;63707;52.212;9.540;2022-11-15T11:23:39;3.20;;;2.60;;
75135;SDS011;63707;52.212;9.540;2022-11-15T11:26:15;5.88;;;2.70;;
75135;SDS011;63707;52.212;9.540;2022-11-15T11:28:54;6.05;;;2.63;;
75135;SDS011;63707;52.212;9.540;2022-11-15T11:31:28;5.30;;;2.22;;
75135;SDS011;63707;52.212;9.540;2022-11-15T11:34:02;5.35;;;2.72;;
75135;SDS011;63707;52.212;9.540;2022-11-15T11:36:36;3.38;;;2.33;;
75135;SDS011;63707;52.212;9.540;2022-11-15T11:39:11;6.07;;;2.65;;
75135;SDS011;63707;52.212;9.540;2022-11-15T11:41:53;7.63;;;3.03;;
75135;SDS011;63707;52.212;9.540;2022-11-15T11:44:28;3.85;;;2.40;;
75135;SDS011;63707;52.212;9.540;2022-11-15T11:46:59;3.85;;;2.67;;
75135;SDS011;63707;52.212;9.540;2022-11-15T11:49:29;4.32;;;2.55;;
75135;SDS011;63707;52.212;9.540;2022-11-15T11:52:02;4.38;;;2.55;;
75135;SDS011;63707;52.212;9.540;2022-11-15T11:54:36;3.40;;;2.50;;
75135;SDS011;63707;52.212;9.540;2022-11-15T11:57:10;7.32;;;3.30;;
75135;SDS011;63707;52.212;9.540;2022-11-15T11:59:43;5.28;;;2.60;;
75135;SDS011;63707;52.212;9.540;2022-11-15T12:02:14;4.63;;;2.70;;
75135;SDS011;63707;52.212;9.540;2022-11-15T12:04:47;5.22;;;2.65;;
75135;SDS011;63707;52.212;9.540;2022-11-15T12:07:17;6.07;;;2.90;;
75135;SDS011;63707;52.212;9.540;2022-11-15T12:09:51;5.57;;;2.70;;
75135;SDS011;63707;52.212;9.540;2022-11-15T12:12:23;3.65;;;2.58;;
75135;SDS011;63707;52.212;9.540;2022-11-15T12:17:23;4.55;;;2.40;;
75135;SDS011;63707;52.212;9.540;2022-11-15T12:19:51;5.28;;;2.78;;
75135;SDS011;63707;52.212;9.540;2022-11-15T12:22:18;5.15;;;2.80;;
75135;SDS011;63707;52.212;9.540;2022-11-15T12:24:48;4.40;;;2.70;;
75135;SDS011;63707;52.212;9.540;2022-11-15T12:27:24;4.53;;;2.78;;
75135;SDS011;63707;52.212;9.540;2022-11-15T12:29:58;5.97;;;3.42;;
75135;SDS011;63707;52.212;9.540;2022-11-15T12:32:28;4.80;;;2.95;;
75135;SDS011;63707;52.212;9.540;2022-11-15T12:34:58;4.82;;;2.72;;
75135;SDS011;63707;52.212;9.540;2022-11-15T12:40:17;4.85;;;2.92;;
75135;SDS011;63707;52.212;9.540;2022-11-15T12:42:58;11.60;;;5.15;;
75135;SDS011;63707;52.212;9.540;2022-11-15T12:45:39;5.45;;;3.03;;
75135;SDS011;63707;52.212;9.540;2022-11-15T12:52:03;4.38;;;2.58;;
75135;SDS011;63707;52.212;9.540;2022-11-15T12:54:49;5.88;;;2.83;;
75135;SDS011;63707;52.212;9.540;2022-11-15T12:57:31;4.05;;;2.65;;
75135;SDS011;63707;52.212;9.540;2022-11-15T12:59:59;4.28;;;2.50;;
75135;SDS011;63707;52.212;9.540;2022-11-15T13:02:27;4.85;;;2.22;;
75135;SDS011;63707;52.212;9.540;2022-11-15T13:04:55;5.55;;;3.88;;
75135;SDS011;63707;52.212;9.540;2022-11-15T13:08:00;5.43;;;3.22;;
75135;SDS011;63707;52.212;9.540;2022-11-15T13:10:29;6.63;;;2.83;;
75135;SDS011;63707;52.212;9.540;2022-11-15T13:12:57;5.90;;;2.67;;
75135;SDS011;63707;52.212;9.540;2022-11-15T13:15:33;5.60;;;2.80;;
75135;SDS011;63707;52.212;9.540;2022-11-15T13:20:59;4.82;;;3.45;;
75135;SDS011;63707;52.212;9.540;2022-11-15T13:23:26;5.70;;;2.85;;
75135;SDS011;63707;52.212;9.540;2022-11-15T13:25:55;4.70;;;2.88;;
75135;SDS011;63707;52.212;9.540;2022-11-15T13:28:31;4.47;;;3.30;;
75135;SDS011;63707;52.212;9.540;2022-11-15T13:30:59;7.78;;;3.67;;
75135;SDS011;63707;52.212;9.540;2022-11-15T13:33:29;8.60;;;3.72;;
75135;SDS011;63707;52.212;9.540;2022-11-15T13:35:57;8.65;;;3.72;;
75135;SDS011;63707;52.212;9.540;2022-11-15T13:38:27;11.98;;;3.90;;
75135;SDS011;63707;52.212;9.540;2022-11-15T13:40:54;9.98;;;3.58;;
75135;SDS011;63707;52.212;9.540;2022-11-15T13:43:25;7.22;;;3.63;;
75135;SDS011;63707;52.212;9.540;2022-11-15T13:46:07;6.85;;;4.30;;
75135;SDS011;63707;52.212;9.540;2022-11-15T13:48:37;6.88;;;3.53;;
75135;SDS011;63707;52.212;9.540;2022-11-15T13:51:02;6.60;;;3.50;;
75135;SDS011;63707;52.212;9.540;2022-11-15T13:53:32;6.65;;;3.78;;
75135;SDS011;63707;52.212;9.540;2022-11-15T13:56:00;8.00;;;3.83;;
75135;SDS011;63707;52.212;9.540;2022-11-15T13:58:28;6.45;;;3.90;;
75135;SDS011;63707;52.212;9.540;2022-11-15T14:00:58;5.93;;;3.60;;
75135;SDS011;63707;52.212;9.540;2022-11-15T14:03:26;11.38;;;5.82;;
75135;SDS011;63707;52.212;9.540;2022-11-15T14:06:03;9.82;;;4.82;;
75135;SDS011;63707;52.212;9.540;2022-11-15T14:08:38;12.63;;;5.75;;
75135;SDS011;63707;52.212;9.540;2022-11-15T14:11:09;8.38;;;4.50;;
75135;SDS011;63707;52.212;9.540;2022-11-15T14:13:39;6.25;;;4.25;;
75135;SDS011;63707;52.212;9.540;2022-11-15T14:18:57;6.13;;;4.22;;
75135;SDS011;63707;52.212;9.540;2022-11-15T14:21:22;7.82;;;3.95;;
75135;SDS011;63707;52.212;9.540;2022-11-15T14:23:49;6.85;;;3.72;;
75135;SDS011;63707;52.212;9.540;2022-11-15T14:26:28;6.28;;;3.50;;
75135;SDS011;63707;52.212;9.540;2022-11-15T14:28:55;9.10;;;4.20;;
75135;SDS011;63707;52.212;9.540;2022-11-15T14:31:21;8.73;;;3.85;;
75135;SDS011;63707;52.212;9.540;2022-11-15T14:33:47;8.45;;;5.03;;
75135;SDS011;63707;52.212;9.540;2022-11-15T14:36:13;8.15;;;4.70;;
75135;SDS011;63707;52.212;9.540;2022-11-15T14:38:40;9.50;;;5.20;;
75135;SDS011;63707;52.212;9.540;2022-11-15T14:41:11;9.35;;;4.07;;
75135;SDS011;63707;52.212;9.540;2022-11-15T14:43:44;7.65;;;3.78;;
75135;SDS011;63707;52.212;9.540;2022-11-15T14:46:09;6.20;;;3.65;;
75135;SDS011;63707;52.212;9.540;2022-11-15T14:48:35;7.75;;;3.67;;
75135;SDS011;63707;52.212;9.540;2022-11-15T14:51:01;5.72;;;3.70;;
75135;SDS011;63707;52.212;9.540;2022-11-15T14:53:27;6.25;;;3.42;;
75135;SDS011;63707;52.212;9.540;2022-11-15T14:55:52;6.70;;;3.63;;
75135;SDS011;63707;52.212;9.540;2022-11-15T14:58:19;9.32;;;3.28;;
75135;SDS011;63707;52.212;9.540;2022-11-15T15:00:44;7.03;;;3.75;;
75135;SDS011;63707;52.212;9.540;2022-11-15T15:03:10;7.97;;;4.07;;
75135;SDS011;63707;52.212;9.540;2022-11-15T15:05:36;16.73;;;9.55;;
75135;SDS011;63707;52.212;9.540;2022-11-15T15:08:03;14.73;;;7.05;;
75135;SDS011;63707;52.212;9.540;2022-11-15T15:10:30;19.55;;;8.93;;
75135;SDS011;63707;52.212;9.540;2022-11-15T15:12:58;17.55;;;7.63;;